Latest Weather Observations for Cape Sorell

IDT60801

Issued at 9:35 am EST Monday 21 April 2014 (issued every 30 minutes, with the page automatically refreshed every 10 minutes)

About weather observations | Map of weather stations | Latest weather observations for TAS | Other Formats
Station Details ID: 097000 Name: CAPE SORELL Lat: -42.20 Lon: 145.17 Height: 19.3 m
Data from the previous 72 hours. | See also: Recent months at Cape Sorell
Date/Time
EST
Temp
°C
App
Temp
°C
Dew
Point
Rel
Hum
%
Delta-T
°C
Wind Press
QNH
hPa
Press
MSL
hPa
Rain
since 9 am
mm
Dir
 
Spd
km/h
Gust
km/h
Spd
kts
Gust
kts
21/09:30am 11.0 7.0 4.9 66 2.8 E 15 19 8 10 1016.9 - 0.0
21/09:00am 10.0 6.8 5.0 71 2.3 ENE 11 17 6 9 1017.2 1017.2 2.8
21/08:30am 8.8 4.7 4.6 75 1.9 ENE 15 20 8 11 1017.4 - 2.8
21/08:00am 8.7 5.2 5.3 79 1.5 ENE 13 19 7 10 1017.5 1017.5 2.8
21/07:30am 8.2 3.7 4.4 77 1.7 ENE 17 24 9 13 1017.1 - 2.8
21/07:00am 8.0 4.0 4.8 80 1.4 ENE 15 19 8 10 1017.4 1017.4 2.8
21/06:30am 7.5 3.5 4.8 83 1.2 ENE 15 20 8 11 1017.0 - 2.8
21/06:00am 7.7 3.3 4.8 82 1.3 ENE 17 19 9 10 1016.9 1016.9 2.8
21/05:30am 8.2 4.6 5.1 81 1.4 ENE 13 17 7 9 1016.8 - 2.8
21/05:00am 8.9 5.8 5.5 79 1.5 ENE 11 15 6 8 1016.7 1016.7 2.8
21/04:30am 8.7 5.6 5.6 81 1.4 ENE 11 13 6 7 1016.6 - 2.8
21/04:00am 8.8 5.7 5.7 81 1.4 ENE 11 13 6 7 1016.4 1016.4 2.8
21/03:30am 9.2 6.7 6.5 83 1.3 ENE 9 13 5 7 1016.5 - 2.8
21/03:00am 8.8 5.8 5.9 82 1.3 E 11 11 6 6 1016.6 1016.6 2.8
21/02:30am 9.2 6.2 6.1 81 1.4 E 11 15 6 8 1016.5 - 2.8
21/02:00am 9.7 6.2 5.3 74 2.0 E 13 15 7 8 1016.7 1016.7 2.8
21/01:30am 9.7 6.3 2.1 59 3.2 ESE 9 13 5 7 1016.7 - 2.8
21/01:00am 10.6 7.6 2.2 56 3.6 WSW 7 11 4 6 1016.5 1016.5 2.8
21/12:30am 10.8 6.8 2.6 57 3.5 SW 13 15 7 8 1016.5 - 2.8
21/12:00am 10.6 7.1 3.6 62 3.1 SW 11 15 6 8 1016.4 1016.4 2.8
 
Date/Time
EST
Temp
°C
App
Temp
°C
Dew
Point
Rel
Hum
%
Delta-T
°C
Wind Press
QNH
hPa
Press
MSL
hPa
Rain
since 9 am
mm
Dir
 
Spd
km/h
Gust
km/h
Spd
kts
Gust
kts
20/11:30pm 10.9 5.9 3.5 60 3.3 WSW 19 24 10 13 1016.1 - 2.8
20/11:00pm 11.2 5.8 4.4 63 3.1 SW 22 28 12 15 1016.2 1016.1 2.8
20/10:30pm 10.9 7.6 4.8 66 2.8 SW 11 19 6 10 1016.2 - 2.8
20/10:00pm 11.1 5.7 4.6 64 2.9 SW 22 28 12 15 1016.0 1015.9 2.8
20/09:30pm 11.2 5.2 5.1 66 2.8 SW 26 30 14 16 1015.6 - 2.8
20/09:00pm 11.2 6.0 5.3 67 2.7 SW 22 28 12 15 1015.3 1015.3 2.8
20/08:30pm 11.4 5.8 5.3 66 2.8 SW 24 33 13 18 1015.1 - 2.8
20/08:00pm 11.8 6.7 6.1 68 2.7 WSW 22 28 12 15 1014.9 1014.9 2.8
20/07:30pm 11.6 5.8 6.1 69 2.6 SW 26 33 14 18 1014.7 - 2.8
20/07:00pm 11.8 6.1 6.9 72 2.3 SW 26 35 14 19 1014.4 1014.4 2.8
20/06:30pm 11.9 5.2 7.2 73 2.3 SW 32 41 17 22 1014.0 - 2.8
20/06:00pm 12.1 5.3 7.0 71 2.4 SW 32 37 17 20 1013.7 1013.7 2.8
20/05:30pm 12.1 6.1 7.2 72 2.4 SW 28 33 15 18 1013.4 - 2.8
20/05:00pm 12.3 5.1 7.6 73 2.3 SW 35 43 19 23 1012.7 1012.7 2.8
20/04:30pm 12.8 5.1 8.7 76 2.1 SW 39 48 21 26 1012.2 - 2.8
20/04:00pm 12.9 5.3 9.2 78 1.9 SW 39 48 21 26 1012.0 1012.0 2.8
20/03:30pm 12.8 4.9 9.4 80 1.7 SW 41 48 22 26 1011.4 - 2.8
20/03:00pm 13.1 5.3 9.7 80 1.7 WSW 41 48 22 26 1010.9 1010.9 2.8
20/02:30pm 13.1 5.6 11.0 87 1.1 WSW 41 56 22 30 1010.1 - 2.8
20/02:00pm 12.8 5.4 11.2 90 0.8 WSW 41 50 22 27 1009.9 1009.9 2.8
20/01:30pm 13.5 8.0 12.4 93 0.6 W 33 43 18 23 1009.7 - 2.8
20/01:05pm 14.1 7.1 11.1 82 1.6 W 39 52 21 28 1009.6 - 0.2
20/01:00pm 15.1 8.7 11.9 81 1.7 WNW 37 46 20 25 1009.6 1009.6 0.0
20/12:30pm 14.6 7.6 11.4 81 1.7 WNW 39 56 21 30 1009.8 - 0.0
20/12:21pm 15.7 9.1 11.3 75 2.4 NW 37 56 20 30 1009.8 - 0.0
20/12:00pm 15.6 7.9 11.4 76 2.3 NW 43 56 23 30 1010.2 1010.2 0.0
20/11:41am 15.8 10.3 11.8 77 2.2 NW 32 50 17 27 1010.4 - 0.0
20/11:30am 15.5 10.4 11.9 79 2.0 NW 30 41 16 22 1010.4 - 0.0
20/11:00am 15.4 10.7 12.0 80 1.8 NW 28 37 15 20 1010.6 1010.6 0.0
20/10:30am 15.2 11.5 12.7 85 1.4 NW 24 37 13 20 1010.9 - 0.0
20/10:00am 13.7 9.3 11.8 88 1.0 NW 26 37 14 20 1011.0 1011.0 0.0
20/09:40am 13.9 7.3 11.2 84 1.4 NW 37 56 20 30 1010.9 - 0.0
20/09:30am 13.6 8.3 11.1 85 1.3 NW 30 39 16 21 1011.2 - 0.0
20/09:00am 13.2 8.8 11.6 90 0.9 NNW 26 37 14 20 1011.3 1011.3 2.2
20/08:30am 13.1 6.9 11.5 90 0.8 NW 35 48 19 26 1011.4 - 2.2
20/08:00am 12.7 6.4 10.9 89 0.9 N 35 43 19 23 1011.1 1011.1 2.0
20/07:30am 12.5 6.6 11.1 91 0.7 N 33 43 18 23 1011.2 - 2.0
20/07:00am 12.4 6.0 10.8 90 0.8 N 35 44 19 24 1011.0 1011.0 1.8
20/06:30am 12.5 6.7 10.7 89 0.9 N 32 43 17 23 1011.0 - 1.6
20/06:00am 12.2 6.8 10.9 92 0.7 N 30 39 16 21 1011.0 1011.0 1.6
20/05:30am 11.7 5.2 10.4 92 0.7 N 35 44 19 24 1010.9 - 1.4
20/05:00am 11.2 5.4 9.6 90 0.8 N 30 37 16 20 1011.2 1011.2 1.2
20/04:30am 11.2 4.8 9.3 88 1.0 NNE 33 41 18 22 1011.2 - 0.6
20/04:00am 11.7 5.6 9.9 89 0.9 N 32 41 17 22 1011.3 1011.3 0.6
20/03:30am 11.1 4.7 9.2 88 0.9 NNE 33 39 18 21 1011.3 - 0.6
20/03:00am 11.4 6.1 9.8 90 0.8 N 28 35 15 19 1011.7 1011.7 0.6
20/02:30am 11.0 5.3 9.9 93 0.6 NNE 30 41 16 22 1012.3 - 0.6
20/02:00am 10.8 5.7 9.1 89 0.8 NNE 26 32 14 17 1012.7 1012.7 0.4
20/01:30am 10.5 6.1 8.9 90 0.8 NNE 22 32 12 17 1012.9 - 0.2
20/01:00am 10.8 7.3 8.9 88 0.9 N 17 22 9 12 1013.6 1013.6 0.2
20/12:30am 10.6 5.3 8.5 87 1.0 NNE 26 32 14 17 1013.5 - 0.0
20/12:00am 10.5 6.7 8.9 90 0.8 NE 19 24 10 13 1013.8 1013.8 0.0
 
Date/Time
EST
Temp
°C
App
Temp
°C
Dew
Point
Rel
Hum
%
Delta-T
°C
Wind Press
QNH
hPa
Press
MSL
hPa
Rain
since 9 am
mm
Dir
 
Spd
km/h
Gust
km/h
Spd
kts
Gust
kts
19/11:30pm 10.3 6.3 8.4 88 0.9 NE 19 24 10 13 1014.1 - 0.0
19/11:00pm 10.9 7.5 7.8 81 1.5 NNE 15 28 8 15 1014.4 1014.4 0.0
19/10:30pm 10.4 6.1 6.9 79 1.7 WNW 19 26 10 14 1015.0 - 0.0
19/10:00pm 9.9 8.4 6.6 80 1.5 N 4 9 2 5 1015.3 1015.3 0.0
19/09:30pm 11.2 6.9 7.1 76 2.0 W 19 26 10 14 1015.5 - 0.0
19/09:00pm 11.3 8.7 6.0 70 2.5 NNW 9 19 5 10 1015.8 1015.7 0.0
19/08:30pm 11.1 8.8 5.8 70 2.5 NNW 7 13 4 7 1015.9 - 0.0
19/08:00pm 11.1 8.4 5.4 68 2.6 NNW 9 13 5 7 1015.9 1015.8 0.0
19/07:30pm 11.3 8.1 5.2 66 2.8 W 11 19 6 10 1016.1 - 0.0
19/07:00pm 11.5 7.7 5.6 67 2.7 WSW 15 22 8 12 1016.2 1016.1 0.0
19/06:30pm 11.6 8.0 5.0 64 3.0 WSW 13 19 7 10 1016.0 - 0.0
19/06:00pm 11.6 8.5 5.5 66 2.8 SW 11 17 6 9 1016.0 1015.9 0.0
19/05:30pm 11.6 8.2 5.7 67 2.7 SW 13 20 7 11 1016.0 - 0.0
19/05:00pm 11.7 7.9 5.8 67 2.7 W 15 22 8 12 1016.2 1016.1 0.0
19/04:30pm 12.0 8.1 5.2 63 3.1 WSW 15 22 8 12 1016.2 - 0.0
19/04:00pm 12.2 8.2 5.1 62 3.3 WSW 15 19 8 10 1016.4 1016.4 0.0
19/03:30pm 13.5 9.9 5.2 57 3.9 WSW 13 19 7 10 1016.5 - 0.0
19/03:00pm 13.5 9.1 6.4 62 3.4 WSW 19 24 10 13 1016.5 1016.5 0.0
19/02:30pm 13.8 9.7 6.4 61 3.6 SW 17 26 9 14 1016.5 - 0.0
19/02:00pm 12.9 8.5 6.5 65 3.1 SW 19 24 10 13 1016.6 1016.6 0.0
19/01:30pm 13.1 8.3 7.5 69 2.7 SW 22 28 12 15 1016.9 - 0.0
19/01:00pm 12.7 6.0 7.2 69 2.7 SW 32 37 17 20 1017.0 1017.0 0.0
19/12:30pm 13.2 7.5 6.5 64 3.2 WSW 26 32 14 17 1017.3 - 0.0
19/12:00pm 12.2 7.0 7.1 71 2.4 SW 24 32 13 17 1017.7 1017.7 0.0
19/11:30am 12.2 7.8 6.5 68 2.7 WSW 19 26 10 14 1017.9 - 0.0
19/11:00am 11.7 7.8 7.2 74 2.2 SSW 17 20 9 11 1018.2 1018.2 0.0
19/10:30am 12.1 5.7 7.0 71 2.4 SW 30 35 16 19 1018.0 - 0.0
19/10:00am 12.4 6.4 6.9 69 2.6 WSW 28 35 15 19 1017.8 1017.8 0.0
19/09:30am 12.2 6.5 6.7 69 2.6 SW 26 33 14 18 1017.7 - 0.0
19/09:00am 11.4 8.5 6.3 71 2.4 SSW 11 19 6 10 1017.9 1017.9 1.2
19/08:30am 11.7 6.3 6.4 70 2.5 SSW 24 35 13 19 1017.7 - 1.2
19/08:00am 12.0 5.8 6.3 68 2.7 SW 28 39 15 21 1017.4 1017.4 1.2
19/07:30am 11.9 5.3 6.2 68 2.7 SW 30 33 16 18 1017.1 - 1.2
19/07:00am 11.7 3.9 6.8 72 2.3 SW 37 44 20 24 1016.7 1016.7 1.2
19/06:30am 11.8 4.5 5.4 65 3.0 SW 33 44 18 24 1016.7 - 1.2
19/06:00am 11.9 4.8 5.3 64 3.0 SSW 32 41 17 22 1016.5 1016.5 1.2
19/05:30am 11.8 3.9 6.1 68 2.7 SW 37 44 20 24 1016.2 - 1.2
19/05:00am 11.9 4.4 6.4 69 2.6 SW 35 44 19 24 1016.1 1016.0 1.2
19/04:30am 12.0 4.5 6.5 69 2.6 SW 35 46 19 25 1016.1 - 1.2
19/04:00am 11.8 3.9 6.3 69 2.6 SW 37 43 20 23 1016.1 1016.0 1.2
19/03:30am 12.2 4.5 7.3 72 2.4 SW 37 44 20 24 1016.0 - 1.2
19/03:00am 12.1 4.1 7.6 74 2.2 SW 39 46 21 25 1016.1 1016.0 1.2
19/02:30am 11.6 4.0 7.5 76 2.0 SW 37 48 20 26 1016.0 - 1.2
19/02:00am 11.2 1.3 8.1 81 1.5 SW 50 57 27 31 1016.0 1015.9 1.2
19/01:53am 11.6 4.9 7.5 76 2.0 SW 32 52 17 28 1016.2 - 1.2
19/01:30am 11.3 4.1 7.8 79 1.7 SW 35 43 19 23 1016.0 - 1.2
19/01:00am 10.2 2.2 7.6 84 1.2 SW 39 52 21 28 1016.2 1016.1 1.2
19/12:30am 11.7 3.0 7.6 76 2.0 SW 43 52 23 28 1016.1 - 1.0
19/12:00am 11.8 2.9 7.5 75 2.1 SW 44 54 24 29 1016.0 1015.9 1.0
 
Date/Time
EST
Temp
°C
App
Temp
°C
Dew
Point
Rel
Hum
%
Delta-T
°C
Wind Press
QNH
hPa
Press
MSL
hPa
Rain
since 9 am
mm
Dir
 
Spd
km/h
Gust
km/h
Spd
kts
Gust
kts
18/11:30pm 12.1 3.8 7.8 75 2.1 SW 41 46 22 25 1016.1 - 1.0
18/11:00pm 11.1 3.2 8.0 81 1.5 SW 39 46 21 25 1016.1 1016.0 1.0
18/10:52pm 10.9 3.1 8.1 83 1.4 SW 39 44 21 24 1016.2 - 1.0
18/10:42pm 11.0 5.6 8.2 83 1.4 S 26 33 14 18 1016.5 - 1.0
18/10:31pm 12.2 4.3 7.9 75 2.1 SW 39 57 21 31 1016.3 - 0.8
18/10:30pm 12.2 4.6 7.5 73 2.3 SW 37 44 20 24 1016.3 - 0.8
18/10:00pm 12.2 2.1 7.3 72 2.4 SW 50 61 27 33 1015.9 1015.8 0.8
18/09:30pm 12.2 3.4 7.3 72 2.4 SW 43 52 23 28 1016.0 - 0.8
18/09:00pm 12.3 3.5 7.2 71 2.5 SW 43 48 23 26 1015.8 1015.7 0.8
18/08:30pm 11.9 3.7 8.0 77 1.9 SW 41 52 22 28 1015.6 - 0.8
18/08:07pm 12.7 3.8 7.6 71 2.5 SW 44 65 24 35 1015.0 - 0.6
18/08:00pm 12.7 4.4 7.6 71 2.5 SW 41 48 22 26 1015.1 1015.1 0.6
18/07:30pm 12.8 4.4 7.3 69 2.7 SW 41 50 22 27 1015.0 - 0.6
18/07:00pm 12.2 5.0 7.5 73 2.3 WSW 35 48 19 26 1014.9 1014.9 0.6
18/06:30pm 12.4 3.7 7.7 73 2.3 SW 43 50 23 27 1014.5 - 0.6
18/06:00pm 12.8 4.1 7.7 71 2.5 SW 43 52 23 28 1014.2 1014.2 0.6
18/05:30pm 12.6 3.2 7.3 70 2.6 SW 46 56 25 30 1013.7 - 0.6
18/05:00pm 12.7 4.5 8.0 73 2.3 SW 41 48 22 26 1013.4 1013.4 0.6
18/04:30pm 13.2 4.6 8.1 71 2.5 WSW 43 50 23 27 1013.0 - 0.6
18/04:00pm 13.4 4.8 8.0 70 2.7 SW 43 50 23 27 1012.6 1012.6 0.6
18/03:30pm 13.6 4.3 7.6 67 2.9 WSW 46 54 25 29 1012.3 - 0.6
18/03:00pm 13.9 4.3 7.9 67 3.0 WSW 48 54 26 29 1012.2 1012.2 0.6
18/02:30pm 14.4 6.3 8.6 68 2.9 WSW 41 48 22 26 1012.0 - 0.6
18/02:00pm 13.9 6.5 8.3 69 2.8 WSW 37 46 20 25 1011.8 1011.8 0.6
18/01:30pm 13.8 5.2 8.0 68 2.9 WSW 43 48 23 26 1011.6 - 0.6
18/01:00pm 13.7 6.2 7.9 68 2.9 WSW 37 46 20 25 1011.5 1011.5 0.6
18/12:30pm 14.2 6.2 9.0 71 2.6 WSW 41 48 22 26 1011.4 - 0.6
18/12:00pm 13.7 6.0 8.7 72 2.5 WSW 39 46 21 25 1011.4 1011.4 0.6
18/11:30am 12.6 6.8 9.6 82 1.5 SW 30 41 16 22 1011.6 - 0.6
18/11:13am 12.6 2.9 8.9 78 1.9 SW 50 61 27 33 1011.2 - 0.6
18/11:00am 13.7 6.7 9.9 78 2.0 WSW 37 43 20 23 1011.5 1011.5 0.6
18/10:30am 12.8 5.6 10.7 87 1.1 SW 39 43 21 23 1011.3 - 0.6
18/10:00am 11.1 4.9 9.4 89 0.9 SW 32 43 17 23 1011.6 1011.6 0.6
18/09:55am 11.5 4.5 9.8 89 0.9 SW 37 43 20 23 1011.5 - 0.6
18/09:51am 11.8 0.6 9.7 87 1.1 SW 59 65 32 35 1010.4 - 0.4
18/09:49am 12.8 7.4 10.9 88 1.0 WSW 30 59 16 32 1011.0 - 0.4
18/09:48am 12.6 7.5 10.7 88 1.0 WSW 28 39 15 21 1011.2 - 0.4

Other Formats:

Comma delimited format used in spreadsheet applications
http://www.bom.gov.au/fwo/IDT60801/IDT60801.94974.axf

JavaScript Object Notation format (JSON) in row-major order
http://www.bom.gov.au/fwo/IDT60801/IDT60801.94974.json